Observation data for Floydada on 11/16/2019      Previous  Date       Current Mesonet Observations  Soil Data  Daily Summary Page  Observations in Plain Language
KFLS 160600Z 20010KT 06/M02 A3017 RMK A01 T00601017  RH  058%=      5-min Rain = 0
KFLS 160605Z 20009KT 06/M02 A3017 RMK A01 T00571017  RH  060%=      5-min Rain = 0
KFLS 160610Z 20009KT 06/M02 A3017 RMK A01 T00561017  RH  060%=      5-min Rain = 0
KFLS 160615Z 20009KT 06/M02 A3017 RMK A01 T00561017  RH  060%=      5-min Rain = 0
KFLS 160620Z 20010KT 06/M02 A3016 RMK A01 T00561016  RH  060%=      5-min Rain = 0
KFLS 160625Z 20009KT 05/M02 A3016 RMK A01 T00541017  RH  061%=      5-min Rain = 0
KFLS 160630Z 20009KT 05/M02 A3016 RMK A01 T00541016  RH  061%=      5-min Rain = 0
KFLS 160635Z 20009KT 05/M02 A3016 RMK A01 T00531016  RH  062%=      5-min Rain = 0
KFLS 160640Z 20010KT 05/M02 A3016 RMK A01 T00541015  RH  061%=      5-min Rain = 0
KFLS 160645Z 20010KT 06/M02 A3016 RMK A01 T00561015  RH  061%=      5-min Rain = 0
KFLS 160650Z 20009KT 05/M02 A3016 RMK A01 T00541016  RH  061%=      5-min Rain = 0
KFLS 160655Z 21009KT 06/M02 A3016 RMK A01 T00561015  RH  061%=      5-min Rain = 0
KFLS 160700Z 21008KT 06/M02 A3016 RMK A01 T00561016  RH  061%=      5-min Rain = 0
KFLS 160705Z 20008KT 06/M02 A3016 RMK A01 T00561016  RH  060%=      5-min Rain = 0
KFLS 160710Z 21007KT 05/M02 A3016 RMK A01 T00531016  RH  062%=      5-min Rain = 0
KFLS 160715Z 20007KT 05/M02 A3015 RMK A01 T00511016  RH  062%=      5-min Rain = 0
KFLS 160720Z 20007KT 05/M02 A3015 RMK A01 T00491016  RH  063%=      5-min Rain = 0
KFLS 160725Z 20007KT 05/M02 A3015 RMK A01 T00471017  RH  064%=      5-min Rain = 0
KFLS 160730Z 20008KT 05/M02 A3015 RMK A01 T00471016  RH  064%=      5-min Rain = 0
KFLS 160735Z 20007KT 05/M02 A3015 RMK A01 T00461016  RH  065%=      5-min Rain = 0
KFLS 160740Z 20008KT 05/M02 A3015 RMK A01 T00451016  RH  065%=      5-min Rain = 0
KFLS 160745Z 20009KT 05/M02 A3015 RMK A01 T00451016  RH  065%=      5-min Rain = 0
KFLS 160750Z 20010KT 05/M02 A3015 RMK A01 T00471015  RH  064%=      5-min Rain = 0
KFLS 160755Z 20010KT 05/M02 A3015 RMK A01 T00481015  RH  064%=      5-min Rain = 0
KFLS 160800Z 20011KT 05/M02 A3015 RMK A01 T00481015  RH  064%=      5-min Rain = 0
KFLS 160805Z 20011KT 05/M02 A3015 RMK A01 T00491015  RH  064%=      5-min Rain = 0
KFLS 160810Z 20011KT 05/M02 A3014 RMK A01 T00511015  RH  063%=      5-min Rain = 0
KFLS 160815Z 20011KT 05/M02 A3014 RMK A01 T00521015  RH  063%=      5-min Rain = 0
KFLS 160820Z 20012KT 05/M02 A3014 RMK A01 T00511015  RH  063%=      5-min Rain = 0
KFLS 160825Z 20012KT 05/M02 A3014 RMK A01 T00511015  RH  063%=      5-min Rain = 0
KFLS 160830Z 20012KT 05/M02 A3014 RMK A01 T00531015  RH  062%=      5-min Rain = 0
KFLS 160835Z 20012KT 06/M02 A3014 RMK A01 T00551015  RH  062%=      5-min Rain = 0
KFLS 160840Z 20012KT 06/M02 A3014 RMK A01 T00581015  RH  060%=      5-min Rain = 0
KFLS 160845Z 21013KT 06/M02 A3014 RMK A01 T00601015  RH  060%=      5-min Rain = 0
KFLS 160850Z 21012G17KT 06/M02 A3014 RMK A01 T00601015  RH  059%=      5-min Rain = 0
KFLS 160855Z 21012G17KT 06/M02 A3014 RMK A01 T00591015  RH  060%=      5-min Rain = 0
KFLS 160900Z 21012KT 06/M01 A3014 RMK A01 T00571014  RH  061%=      5-min Rain = 0
KFLS 160905Z 21012KT 06/M01 A3014 RMK A01 T00561014  RH  061%=      5-min Rain = 0
KFLS 160910Z 21012KT 06/M01 A3014 RMK A01 T00571014  RH  061%=      5-min Rain = 0
KFLS 160915Z 21011KT 06/M01 A3014 RMK A01 T00561014  RH  062%=      5-min Rain = 0
KFLS 160920Z 21011KT 06/M01 A3014 RMK A01 T00551014  RH  062%=      5-min Rain = 0
KFLS 160925Z 21011KT 06/M01 A3013 RMK A01 T00551014  RH  062%=      5-min Rain = 0
KFLS 160930Z 21012KT 06/M01 A3013 RMK A01 T00571013  RH  062%=      5-min Rain = 0
KFLS 160935Z 20011G16KT 06/M01 A3013 RMK A01 T00561013  RH  062%=      5-min Rain = 0
KFLS 160940Z 20011KT 05/M01 A3013 RMK A01 T00531013  RH  063%=      5-min Rain = 0
KFLS 160945Z 20011KT 05/M01 A3013 RMK A01 T00521012  RH  064%=      5-min Rain = 0
KFLS 160950Z 20011KT 05/M01 A3013 RMK A01 T00501012  RH  065%=      5-min Rain = 0
KFLS 160955Z 20011KT 05/M01 A3012 RMK A01 T00501012  RH  065%=      5-min Rain = 0
KFLS 161000Z 20011KT 05/M01 A3012 RMK A01 T00501011  RH  065%=      5-min Rain = 0
KFLS 161005Z 20010KT 05/M01 A3012 RMK A01 T00481012  RH  066%=      5-min Rain = 0
KFLS 161010Z 20011KT 05/M01 A3012 RMK A01 T00491011  RH  066%=      5-min Rain = 0
KFLS 161015Z 20011KT 05/M01 A3012 RMK A01 T00501011  RH  066%=      5-min Rain = 0
KFLS 161020Z 20011KT 05/M01 A3012 RMK A01 T00491011  RH  066%=      5-min Rain = 0
KFLS 161025Z 20011KT 05/M01 A3012 RMK A01 T00481010  RH  067%=      5-min Rain = 0
KFLS 161030Z 20011KT 05/M01 A3012 RMK A01 T00471010  RH  067%=      5-min Rain = 0
KFLS 161035Z 20011KT 05/M01 A3012 RMK A01 T00471010  RH  067%=      5-min Rain = 0
KFLS 161040Z 20010KT 05/M01 A3012 RMK A01 T00471010  RH  067%=      5-min Rain = 0
KFLS 161045Z 20011KT 05/M01 A3012 RMK A01 T00461010  RH  068%=      5-min Rain = 0
KFLS 161050Z 20011KT 05/M01 A3012 RMK A01 T00461010  RH  068%=      5-min Rain = 0
KFLS 161055Z 20011KT 05/M01 A3012 RMK A01 T00471009  RH  068%=      5-min Rain = 0
KFLS 161100Z 20011KT 05/M01 A3012 RMK A01 T00481009  RH  068%=      5-min Rain = 0
KFLS 161105Z 20011KT 05/M01 A3011 RMK A01 T00481008  RH  068%=      5-min Rain = 0
KFLS 161110Z 21010KT 05/M01 A3011 RMK A01 T00471009  RH  068%=      5-min Rain = 0
KFLS 161115Z 21010KT 05/M01 A3012 RMK A01 T00471008  RH  068%=      5-min Rain = 0
KFLS 161120Z 21010KT 05/M01 A3012 RMK A01 T00471008  RH  068%=      5-min Rain = 0
KFLS 161125Z 21010KT 05/M01 A3012 RMK A01 T00461008  RH  069%=      5-min Rain = 0
KFLS 161130Z 21011KT 05/M01 A3012 RMK A01 T00471008  RH  068%=      5-min Rain = 0
KFLS 161135Z 21011KT 05/M01 A3012 RMK A01 T00471007  RH  069%=      5-min Rain = 0
KFLS 161140Z 20010KT 05/M01 A3012 RMK A01 T00451008  RH  069%=      5-min Rain = 0
KFLS 161145Z 20011KT 04/M01 A3012 RMK A01 T00441007  RH  070%=      5-min Rain = 0
KFLS 161150Z 20010KT 04/M01 A3012 RMK A01 T00431007  RH  071%=      5-min Rain = 0
KFLS 161155Z 20010KT 04/M01 A3012 RMK A01 T00421007  RH  071%=      5-min Rain = 0
KFLS 161200Z 20010KT 04/M01 A3011 RMK A01 T00421007  RH  071%=      5-min Rain = 0
KFLS 161205Z 20010KT 04/M01 A3011 RMK A01 T00431006  RH  071%=      5-min Rain = 0
KFLS 161210Z 20010KT 04/M01 A3011 RMK A01 T00431006  RH  071%=      5-min Rain = 0
KFLS 161215Z 20010KT 04/M01 A3011 RMK A01 T00401007  RH  072%=      5-min Rain = 0
KFLS 161220Z 20009KT 04/M01 A3012 RMK A01 T00381007  RH  073%=      5-min Rain = 0
KFLS 161225Z 20010KT 04/M01 A3011 RMK A01 T00381006  RH  074%=      5-min Rain = 0
KFLS 161230Z 20010KT 04/M01 A3011 RMK A01 T00381006  RH  074%=      5-min Rain = 0
KFLS 161235Z 20010KT 04/M01 A3011 RMK A01 T00381006  RH  074%=      5-min Rain = 0
KFLS 161240Z 20009KT 04/M01 A3011 RMK A01 T00381006  RH  074%=      5-min Rain = 0
KFLS 161245Z 20009KT 04/M01 A3011 RMK A01 T00391005  RH  074%=      5-min Rain = 0
KFLS 161250Z 20009KT 04/M01 A3011 RMK A01 T00401005  RH  074%=      5-min Rain = 0
KFLS 161255Z 20009KT 04/M01 A3011 RMK A01 T00401005  RH  073%=      5-min Rain = 0
KFLS 161300Z 20009KT 04/M01 A3011 RMK A01 T00391005  RH  074%=      5-min Rain = 0
KFLS 161305Z 20009KT 04/M01 A3011 RMK A01 T00391005  RH  074%=      5-min Rain = 0
KFLS 161310Z 20010KT 04/M01 A3011 RMK A01 T00391005  RH  074%=      5-min Rain = 0
KFLS 161315Z 20009KT 04/M01 A3011 RMK A01 T00391005  RH  074%=      5-min Rain = 0
KFLS 161320Z 20009KT 04/M01 A3011 RMK A01 T00391005  RH  074%=      5-min Rain = 0
KFLS 161325Z 20009KT 04/M01 A3011 RMK A01 T00381006  RH  074%=      5-min Rain = 0
KFLS 161330Z 20009KT 04/M01 A3011 RMK A01 T00381005  RH  074%=      5-min Rain = 0
KFLS 161335Z 20010KT 04/M00 A3011 RMK A01 T00401004  RH  074%=      5-min Rain = 0
KFLS 161340Z 21009KT 04/M00 A3011 RMK A01 T00421003  RH  073%=      5-min Rain = 0
KFLS 161345Z 21010KT 04/M00 A3011 RMK A01 T00441003  RH  072%=      5-min Rain = 0
KFLS 161350Z 21009KT 05/M00 A3011 RMK A01 T00461003  RH  072%=      5-min Rain = 0
KFLS 161355Z 21010KT 05/M00 A3011 RMK A01 T00471003  RH  071%=      5-min Rain = 0
KFLS 161400Z 21010KT 05/M00 A3012 RMK A01 T00481002  RH  071%=      5-min Rain = 0
KFLS 161405Z 21010KT 05/M00 A3012 RMK A01 T00511001  RH  070%=      5-min Rain = 0
KFLS 161410Z 21010KT 05/M00 A3012 RMK A01 T00541001  RH  068%=      5-min Rain = 0
KFLS 161415Z 21010KT 06/M00 A3011 RMK A01 T00561001  RH  068%=      5-min Rain = 0
KFLS 161420Z 21010KT 06/00 A3012 RMK A01 T005600-0  RH  068%=      5-min Rain = 0
KFLS 161425Z 21010KT 06/00 A3012 RMK A01 T00610001  RH  066%=      5-min Rain = 0
KFLS 161430Z 21010KT 06/00 A3012 RMK A01 T00630001  RH  065%=      5-min Rain = 0
KFLS 161435Z 21011KT 06/00 A3012 RMK A01 T00630000  RH  065%=      5-min Rain = 0
KFLS 161440Z 21012KT 06/00 A3011 RMK A01 T00620000  RH  065%=      5-min Rain = 0
KFLS 161445Z 21011KT 06/00 A3011 RMK A01 T00630001  RH  065%=      5-min Rain = 0
KFLS 161450Z 21010KT 07/00 A3011 RMK A01 T00650002  RH  065%=      5-min Rain = 0
KFLS 161455Z 20011KT 07/00 A3012 RMK A01 T00660002  RH  064%=      5-min Rain = 0
KFLS 161500Z 21011KT 07/00 A3012 RMK A01 T00690003  RH  063%=      5-min Rain = 0
KFLS 161505Z 21012KT 07/00 A3011 RMK A01 T00740004  RH  062%=      5-min Rain = 0
KFLS 161510Z 21013KT 08/00 A3011 RMK A01 T00750004  RH  061%=      5-min Rain = 0
KFLS 161515Z 21015G20KT 08/01 A3011 RMK A01 T00820005  RH  059%=      5-min Rain = 0
KFLS 161520Z 20014G19KT 09/01 A3011 RMK A01 T00870005  RH  057%=      5-min Rain = 0
KFLS 161525Z 20014G19KT 09/01 A3011 RMK A01 T00900005  RH  056%=      5-min Rain = 0
KFLS 161530Z 21014G19KT 09/00 A3011 RMK A01 T00880003  RH  056%=      5-min Rain = 0
KFLS 161535Z 20015G21KT 09/00 A3011 RMK A01 T00920004  RH  055%=      5-min Rain = 0
KFLS 161540Z 21014KT 09/00 A3011 RMK A01 T00920003  RH  054%=      5-min Rain = 0
KFLS 161545Z 21015KT 10/01 A3011 RMK A01 T01000007  RH  053%=      5-min Rain = 0
KFLS 161550Z 21014KT 10/01 A3011 RMK A01 T01030006  RH  052%=      5-min Rain = 0
KFLS 161555Z 21013G18KT 11/01 A3011 RMK A01 T01080008  RH  050%=      5-min Rain = 0
KFLS 161600Z 21014KT 11/01 A3011 RMK A01 T01100008  RH  050%=      5-min Rain = 0
KFLS 161605Z 21014KT 12/01 A301 RMK A01 T01150008  RH  048%=      5-min Rain = 0
KFLS 161610Z 21014G19KT 11/01 A301 RMK A01 T01140007  RH  048%=      5-min Rain = 0
KFLS 161615Z 20014KT 12/01 A301 RMK A01 T01180008  RH  047%=      5-min Rain = 0
KFLS 161620Z 21015KT 12/01 A301 RMK A01 T01150006  RH  048%=      5-min Rain = 0
KFLS 161625Z 21014KT 11/01 A301 RMK A01 T01140007  RH  048%=      5-min Rain = 0
KFLS 161630Z 21013KT 12/01 A301 RMK A01 T01210009  RH  047%=      5-min Rain = 0
KFLS 161635Z 21015KT 12/01 A301 RMK A01 T01210009  RH  047%=      5-min Rain = 0
KFLS 161640Z 21014KT 12/01 A301 RMK A01 T01200008  RH  047%=      5-min Rain = 0
KFLS 161645Z 21012KT 12/01 A3009 RMK A01 T01210010  RH  047%=      5-min Rain = 0
KFLS 161650Z 20013KT 13/01 A3009 RMK A01 T01270011  RH  046%=      5-min Rain = 0
KFLS 161655Z 20013KT 13/01 A3009 RMK A01 T01280011  RH  045%=      5-min Rain = 0
KFLS 161700Z 21012KT 13/01 A3009 RMK A01 T01250010  RH  046%=      5-min Rain = 0
KFLS 161705Z 21013KT 13/01 A3009 RMK A01 T01260011  RH  046%=      5-min Rain = 0
KFLS 161710Z 21013KT 13/01 A3009 RMK A01 T01290012  RH  045%=      5-min Rain = 0
KFLS 161715Z 20014KT 13/01 A3008 RMK A01 T01290011  RH  045%=      5-min Rain = 0
KFLS 161720Z 21014KT 13/01 A3008 RMK A01 T01340013  RH  044%=      5-min Rain = 0
KFLS 161725Z 21014KT 14/01 A3008 RMK A01 T01370013  RH  043%=      5-min Rain = 0
KFLS 161730Z 20014KT 14/01 A3008 RMK A01 T01380013  RH  043%=      5-min Rain = 0
KFLS 161735Z 20015KT 14/01 A3008 RMK A01 T01360012  RH  043%=      5-min Rain = 0
KFLS 161740Z 20013KT 14/01 A3007 RMK A01 T01400013  RH  043%=      5-min Rain = 0
KFLS 161745Z 20014KT 14/01 A3007 RMK A01 T01430013  RH  042%=      5-min Rain = 0
KFLS 161750Z 20012KT 14/01 A3006 RMK A01 T01420014  RH  042%=      5-min Rain = 0
KFLS 161755Z 20012KT 14/02 A3006 RMK A01 T01440015  RH  042%=      5-min Rain = 0
KFLS 161800Z 21013KT 15/02 A3006 RMK A01 T01510015  RH  040%=      5-min Rain = 0
KFLS 161805Z 21012KT 15/01 A3005 RMK A01 T01480013  RH  040%=      5-min Rain = 0
KFLS 161810Z 20013KT 15/01 A3005 RMK A01 T01470014  RH  041%=      5-min Rain = 0
KFLS 161815Z 19012KT 15/01 A3005 RMK A01 T01500014  RH  040%=      5-min Rain = 0
KFLS 161820Z 20012KT 15/01 A3005 RMK A01 T01470014  RH  041%=      5-min Rain = 0
KFLS 161825Z 18013KT 15/02 A3004 RMK A01 T01480015  RH  041%=      5-min Rain = 0
KFLS 161830Z 19011KT 15/02 A3004 RMK A01 T01500015  RH  041%=      5-min Rain = 0
KFLS 161835Z 18012KT 15/02 A3004 RMK A01 T01490015  RH  041%=      5-min Rain = 0
KFLS 161840Z 18013KT 15/01 A3003 RMK A01 T01530014  RH  040%=      5-min Rain = 0
KFLS 161845Z 19013KT 15/01 A3003 RMK A01 T01510013  RH  039%=      5-min Rain = 0
KFLS 161850Z 19013KT 15/01 A3003 RMK A01 T01530013  RH  039%=      5-min Rain = 0
KFLS 161855Z 18012KT 16/01 A3002 RMK A01 T01550014  RH  039%=      5-min Rain = 0
KFLS 161900Z 18013KT 16/02 A3002 RMK A01 T01560016  RH  039%=      5-min Rain = 0
KFLS 161905Z 18013KT 16/01 A3002 RMK A01 T01550014  RH  039%=      5-min Rain = 0
KFLS 161910Z 19012KT 15/01 A3001 RMK A01 T01540012  RH  038%=      5-min Rain = 0
KFLS 161915Z 18010KT 16/02 A3001 RMK A01 T01590015  RH  038%=      5-min Rain = 0
KFLS 161920Z 18011KT 16/02 A3001 RMK A01 T01590016  RH  039%=      5-min Rain = 0
KFLS 161925Z 18010G15KT 16/02 A30 RMK A01 T01600016  RH  038%=      5-min Rain = 0
KFLS 161930Z 18012KT 16/01 A30 RMK A01 T01620013  RH  037%=      5-min Rain = 0
KFLS 161935Z 19013KT 16/01 A30 RMK A01 T01600009  RH  036%=      5-min Rain = 0
KFLS 161940Z 20013KT 16/01 A30 RMK A01 T01600010  RH  036%=      5-min Rain = 0
KFLS 161945Z 19011KT 17/01 A2999 RMK A01 T01650011  RH  036%=      5-min Rain = 0
KFLS 161950Z 18012KT 17/01 A2999 RMK A01 T01670011  RH  035%=      5-min Rain = 0
KFLS 161955Z 18011G16KT 17/01 A2999 RMK A01 T01690012  RH  035%=      5-min Rain = 0
KFLS 162000Z 18013KT 18/01 A2999 RMK A01 T01750012  RH  034%=      5-min Rain = 0
KFLS 162005Z 18014KT 17/01 A2998 RMK A01 T01740011  RH  034%=      5-min Rain = 0
KFLS 162010Z 19011KT 18/01 A2998 RMK A01 T01770012  RH  033%=      5-min Rain = 0
KFLS 162015Z 19011KT 18/01 A2998 RMK A01 T01810013  RH  033%=      5-min Rain = 0
KFLS 162020Z 19013KT 18/01 A2998 RMK A01 T01750011  RH  034%=      5-min Rain = 0
KFLS 162025Z 19013KT 17/01 A2998 RMK A01 T01740008  RH  033%=      5-min Rain = 0
KFLS 162030Z 20014KT 18/01 A2998 RMK A01 T01790006  RH  032%=      5-min Rain = 0
KFLS 162035Z 19014G19KT 18/01 A2997 RMK A01 T01800011  RH  032%=      5-min Rain = 0
KFLS 162040Z 18013KT 18/01 A2997 RMK A01 T01820011  RH  032%=      5-min Rain = 0
KFLS 162045Z 18014G19KT 19/01 A2997 RMK A01 T01870012  RH  031%=      5-min Rain = 0
KFLS 162050Z 18015KT 18/01 A2997 RMK A01 T01820011  RH  032%=      5-min Rain = 0
KFLS 162055Z 18014KT 19/01 A2997 RMK A01 T01870012  RH  031%=      5-min Rain = 0
KFLS 162100Z 18015G20KT 19/01 A2997 RMK A01 T01860010  RH  031%=      5-min Rain = 0
KFLS 162105Z 18014G19KT 19/01 A2997 RMK A01 T01860009  RH  031%=      5-min Rain = 0
KFLS 162110Z 19015G20KT 18/01 A2997 RMK A01 T01810008  RH  031%=      5-min Rain = 0
KFLS 162115Z 18014KT 18/01 A2997 RMK A01 T01800007  RH  032%=      5-min Rain = 0
KFLS 162120Z 18013KT 18/01 A2997 RMK A01 T01780008  RH  032%=      5-min Rain = 0
KFLS 162125Z 18013G18KT 18/01 A2997 RMK A01 T01800007  RH  031%=      5-min Rain = 0
KFLS 162130Z 18015G21KT 18/01 A2997 RMK A01 T01800009  RH  032%=      5-min Rain = 0
KFLS 162135Z 19016G21KT 18/01 A2997 RMK A01 T01750008  RH  033%=      5-min Rain = 0
KFLS 162140Z 19014KT 17/01 A2997 RMK A01 T01720010  RH  034%=      5-min Rain = 0
KFLS 162145Z 19015KT 17/01 A2997 RMK A01 T01720011  RH  034%=      5-min Rain = 0
KFLS 162150Z 19014KT 17/01 A2997 RMK A01 T01720012  RH  034%=      5-min Rain = 0
KFLS 162155Z 19015KT 17/01 A2997 RMK A01 T01730011  RH  034%=      5-min Rain = 0
KFLS 162200Z 19015KT 17/01 A2996 RMK A01 T01740012  RH  034%=      5-min Rain = 0
KFLS 162205Z 19015G20KT 18/01 A2996 RMK A01 T01750013  RH  034%=      5-min Rain = 0
KFLS 162210Z 19014KT 17/01 A2996 RMK A01 T01690013  RH  035%=      5-min Rain = 0
KFLS 162215Z 18013KT 17/01 A2996 RMK A01 T01670013  RH  036%=      5-min Rain = 0
KFLS 162220Z 19013KT 17/01 A2996 RMK A01 T01700012  RH  035%=      5-min Rain = 0
KFLS 162225Z 19013KT 17/01 A2996 RMK A01 T01730010  RH  034%=      5-min Rain = 0
KFLS 162230Z 18012KT 17/01 A2996 RMK A01 T01690009  RH  034%=      5-min Rain = 0
KFLS 162235Z 18014KT 17/00 A2996 RMK A01 T01680004  RH  033%=      5-min Rain = 0
KFLS 162240Z 18014KT 17/00 A2996 RMK A01 T01660000  RH  033%=      5-min Rain = 0
KFLS 162245Z 18015KT 16/00 A2996 RMK A01 T01610000  RH  034%=      5-min Rain = 0
KFLS 162250Z 18014KT 16/01 A2996 RMK A01 T01620005  RH  035%=      5-min Rain = 0
KFLS 162255Z 18015KT 16/01 A2996 RMK A01 T01600008  RH  036%=      5-min Rain = 0
KFLS 162300Z 18015G20KT 16/01 A2996 RMK A01 T01560009  RH  037%=      5-min Rain = 0
KFLS 162305Z 18012KT 15/01 A2996 RMK A01 T01520010  RH  038%=      5-min Rain = 0
KFLS 162310Z 18013KT 15/01 A2996 RMK A01 T01510012  RH  039%=      5-min Rain = 0
KFLS 162315Z 18011KT 15/01 A2996 RMK A01 T01480013  RH  041%=      5-min Rain = 0
KFLS 162320Z 17011KT 14/02 A2996 RMK A01 T01430017  RH  043%=      5-min Rain = 0
KFLS 162325Z 17011KT 14/02 A2995 RMK A01 T01400020  RH  044%=      5-min Rain = 0
KFLS 162330Z 16011KT 14/02 A2995 RMK A01 T01390022  RH  046%=      5-min Rain = 0
KFLS 162335Z 17010KT 14/02 A2996 RMK A01 T01350023  RH  047%=      5-min Rain = 0
KFLS 162340Z 17010KT 13/03 A2996 RMK A01 T01330025  RH  048%=      5-min Rain = 0
KFLS 162345Z 17009KT 13/03 A2996 RMK A01 T01320026  RH  049%=      5-min Rain = 0
KFLS 162350Z 16009KT 13/03 A2996 RMK A01 T01290026  RH  050%=      5-min Rain = 0
KFLS 162355Z 17008KT 13/03 A2996 RMK A01 T01280026  RH  051%=      5-min Rain = 0
KFLS 170000Z 17008KT 13/03 A2996 RMK A01 T01270026  RH  051%=      5-min Rain = 0
KFLS 170005Z 17009KT 13/03 A2996 RMK A01 T01260026  RH  051%=      5-min Rain = 0
KFLS 170010Z 17007KT 12/03 A2996 RMK A01 T01230025  RH  052%=      5-min Rain = 0
KFLS 170015Z 17007KT 12/03 A2997 RMK A01 T01190025  RH  053%=      5-min Rain = 0
KFLS 170020Z 17007KT 12/02 A2997 RMK A01 T01160024  RH  054%=      5-min Rain = 0
KFLS 170025Z 17007KT 12/02 A2996 RMK A01 T01150024  RH  054%=      5-min Rain = 0
KFLS 170030Z 18007KT 12/02 A2997 RMK A01 T01150024  RH  054%=      5-min Rain = 0
KFLS 170035Z 18008KT 12/03 A2997 RMK A01 T01160025  RH  054%=      5-min Rain = 0
KFLS 170040Z 18009KT 12/03 A2997 RMK A01 T01160025  RH  054%=      5-min Rain = 0
KFLS 170045Z 18009KT 12/03 A2997 RMK A01 T01170025  RH  054%=      5-min Rain = 0
KFLS 170050Z 18008KT 12/03 A2997 RMK A01 T01170025  RH  054%=      5-min Rain = 0
KFLS 170055Z 18008KT 12/03 A2997 RMK A01 T01160025  RH  054%=      5-min Rain = 0
KFLS 170100Z 17008KT 12/02 A2997 RMK A01 T01160024  RH  054%=      5-min Rain = 0
KFLS 170105Z 18008KT 12/02 A2998 RMK A01 T01150024  RH  054%=      5-min Rain = 0
KFLS 170110Z 18009KT 11/03 A2998 RMK A01 T01140025  RH  055%=      5-min Rain = 0
KFLS 170115Z 17009KT 11/03 A2997 RMK A01 T01130025  RH  055%=      5-min Rain = 0
KFLS 170120Z 17010KT 11/03 A2997 RMK A01 T01140025  RH  055%=      5-min Rain = 0
KFLS 170125Z 17010KT 12/03 A2997 RMK A01 T01150025  RH  055%=      5-min Rain = 0
KFLS 170130Z 17009KT 11/03 A2997 RMK A01 T01140025  RH  055%=      5-min Rain = 0
KFLS 170135Z 17009KT 11/03 A2997 RMK A01 T01130025  RH  055%=      5-min Rain = 0
KFLS 170140Z 18009KT 11/03 A2997 RMK A01 T01130025  RH  055%=      5-min Rain = 0
KFLS 170145Z 18009KT 11/03 A2997 RMK A01 T01130025  RH  055%=      5-min Rain = 0
KFLS 170150Z 17009KT 11/02 A2997 RMK A01 T01130024  RH  055%=      5-min Rain = 0
KFLS 170155Z 17008KT 11/02 A2997 RMK A01 T01090024  RH  056%=      5-min Rain = 0
KFLS 170200Z 17008KT 11/02 A2997 RMK A01 T01070024  RH  057%=      5-min Rain = 0
KFLS 170205Z 17008KT 10/02 A2997 RMK A01 T01030023  RH  058%=      5-min Rain = 0
KFLS 170210Z 17009KT 10/02 A2997 RMK A01 T01020023  RH  059%=      5-min Rain = 0
KFLS 170215Z 17010KT 10/02 A2997 RMK A01 T01040024  RH  058%=      5-min Rain = 0
KFLS 170220Z 17009KT 11/02 A2996 RMK A01 T01050024  RH  058%=      5-min Rain = 0
KFLS 170225Z 17009KT 10/02 A2996 RMK A01 T01040024  RH  058%=      5-min Rain = 0
KFLS 170230Z 17009KT 10/02 A2996 RMK A01 T01040023  RH  058%=      5-min Rain = 0
KFLS 170235Z 18009KT 10/02 A2996 RMK A01 T01020023  RH  059%=      5-min Rain = 0
KFLS 170240Z 18008KT 10/02 A2996 RMK A01 T00960022  RH  061%=      5-min Rain = 0
KFLS 170245Z 18009KT 10/02 A2996 RMK A01 T00950022  RH  061%=      5-min Rain = 0
KFLS 170250Z 18009KT 10/02 A2996 RMK A01 T00970023  RH  061%=      5-min Rain = 0
KFLS 170255Z 18010KT 10/02 A2996 RMK A01 T01010024  RH  059%=      5-min Rain = 0
KFLS 170300Z 18010KT 10/02 A2996 RMK A01 T01020024  RH  059%=      5-min Rain = 0
KFLS 170305Z 18010KT 10/02 A2996 RMK A01 T01020024  RH  059%=      5-min Rain = 0
KFLS 170310Z 18009KT 10/02 A2996 RMK A01 T01020024  RH  059%=      5-min Rain = 0
KFLS 170315Z 19010KT 10/02 A2996 RMK A01 T01020024  RH  059%=      5-min Rain = 0
KFLS 170320Z 19009KT 10/02 A2996 RMK A01 T00990023  RH  060%=      5-min Rain = 0
KFLS 170325Z 19011KT 10/02 A2996 RMK A01 T01000024  RH  060%=      5-min Rain = 0
KFLS 170330Z 19011KT 10/02 A2996 RMK A01 T01010024  RH  059%=      5-min Rain = 0
KFLS 170335Z 19012KT 10/02 A2996 RMK A01 T01020024  RH  059%=      5-min Rain = 0
KFLS 170340Z 19012KT 10/02 A2996 RMK A01 T01020024  RH  059%=      5-min Rain = 0
KFLS 170345Z 19012KT 10/02 A2996 RMK A01 T01020024  RH  059%=      5-min Rain = 0
KFLS 170350Z 19011KT 10/02 A2996 RMK A01 T01010024  RH  060%=      5-min Rain = 0
KFLS 170355Z 19012KT 10/02 A2996 RMK A01 T01010024  RH  060%=      5-min Rain = 0
KFLS 170400Z 19011KT 10/02 A2996 RMK A01 T00990024  RH  061%=      5-min Rain = 0
KFLS 170405Z 20009KT 09/02 A2996 RMK A01 T00940024  RH  062%=      5-min Rain = 0
KFLS 170410Z 20008KT 09/02 A2996 RMK A01 T00890023  RH  064%=      5-min Rain = 0
KFLS 170415Z 20009KT 09/02 A2996 RMK A01 T00860023  RH  065%=      5-min Rain = 0
KFLS 170420Z 20009KT 09/02 A2996 RMK A01 T00850023  RH  066%=      5-min Rain = 0
KFLS 170425Z 20008KT 08/02 A2996 RMK A01 T00830023  RH  067%=      5-min Rain = 0
KFLS 170430Z 20008KT 08/02 A2996 RMK A01 T00780021  RH  068%=      5-min Rain = 0
KFLS 170435Z 21008KT 08/02 A2997 RMK A01 T00770023  RH  069%=      5-min Rain = 0
KFLS 170440Z 21007KT 08/03 A2997 RMK A01 T00820025  RH  068%=      5-min Rain = 0
KFLS 170445Z 22006KT 09/03 A2997 RMK A01 T00860025  RH  067%=      5-min Rain = 0
KFLS 170450Z 22006KT 09/03 A2997 RMK A01 T00880025  RH  065%=      5-min Rain = 0
KFLS 170455Z 22005KT 08/02 A2997 RMK A01 T00820021  RH  066%=      5-min Rain = 0
KFLS 170500Z 23005KT 06/01 A2997 RMK A01 T00610010  RH  071%=      5-min Rain = 0
KFLS 170505Z 24005KT 05/01 A2998 RMK A01 T00470005  RH  075%=      5-min Rain = 0
KFLS 170510Z 24005KT 04/01 A2998 RMK A01 T00430006  RH  078%=      5-min Rain = 0
KFLS 170515Z 23005KT 05/01 A2997 RMK A01 T00450008  RH  078%=      5-min Rain = 0
KFLS 170520Z 23005KT 05/01 A2997 RMK A01 T00470010  RH  078%=      5-min Rain = 0
KFLS 170525Z 23005KT 05/01 A2997 RMK A01 T00500012  RH  077%=      5-min Rain = 0
KFLS 170530Z 23005KT 05/01 A2997 RMK A01 T00520013  RH  077%=      5-min Rain = 0
KFLS 170535Z 24004KT 05/01 A2998 RMK A01 T00520013  RH  077%=      5-min Rain = 0
KFLS 170540Z 22005KT 05/02 A2997 RMK A01 T00520015  RH  078%=      5-min Rain = 0
KFLS 170545Z 22006KT 06/02 A2997 RMK A01 T00610021  RH  077%=      5-min Rain = 0
KFLS 170550Z 21006KT 06/02 A2996 RMK A01 T00640023  RH  076%=      5-min Rain = 0
KFLS 170555Z 20007KT 06/02 A2996 RMK A01 T00640024  RH  077%=      5-min Rain = 0

Page generated in 0.0146 seconds.